ARG1236 SAZS-SAVE
Flight info
| Callsign | ARG1236 |
|---|---|
| Flight time | 0h 26m |
| Altitude | 35000 |
| Route | SAZS/29 TORE2C TORES DCT ANSOT DCT SAVE |
| Aircraft | B737/M-SDE2E3FGHIRWXY/LB1 |
Departure
| Time | 2026-04-29 14:35 |
|---|---|
| Airport | Teniente Luis Candelaria International Airport (SAZS) |
Arrival
| Time | 2026-04-29 15:02 |
|---|---|
| Airport | Esquel Brigadier Antonio Parodi International Airport (SAVE) |
| Time | Latitude | Longitude | Altitude | Speed | Heading |
|---|---|---|---|---|---|
| 2026-04-29 14:13 | -41.14652 | -71.16158 | 2784 ft | 0 kts | 25° |
| 2026-04-29 14:26 | -41.14655 | -71.16161 | 2784 ft | 0 kts | 8° |
| 2026-04-29 14:26 | -41.14665 | -71.16157 | 2784 ft | 1 kts | 348° |
| 2026-04-29 14:26 | -41.14679 | -71.16159 | 2784 ft | 2 kts | 8° |
| 2026-04-29 14:27 | -41.14694 | -71.16161 | 2784 ft | 2 kts | 3° |
| 2026-04-29 14:27 | -41.14710 | -71.16162 | 2784 ft | 2 kts | 5° |
| 2026-04-29 14:27 | -41.14724 | -71.16164 | 2784 ft | 2 kts | 5° |
| 2026-04-29 14:28 | -41.14755 | -71.16167 | 2784 ft | 2 kts | 4° |
| 2026-04-29 14:28 | -41.14770 | -71.16168 | 2784 ft | 2 kts | 4° |
| 2026-04-29 14:28 | -41.14784 | -71.16170 | 2784 ft | 2 kts | 4° |
| 2026-04-29 14:28 | -41.14799 | -71.16172 | 2784 ft | 2 kts | 5° |
| 2026-04-29 14:29 | -41.14808 | -71.16173 | 2784 ft | 0 kts | 31° |
| 2026-04-29 14:29 | -41.14813 | -71.16180 | 2784 ft | 1 kts | 88° |
| 2026-04-29 14:29 | -41.14811 | -71.16190 | 2784 ft | 1 kts | 139° |
| 2026-04-29 14:29 | -41.14801 | -71.16194 | 2784 ft | 2 kts | 184° |
| 2026-04-29 14:30 | -41.14788 | -71.16196 | 2784 ft | 0 kts | 167° |
| 2026-04-29 14:31 | -41.14794 | -71.16193 | 2784 ft | 4 kts | 159° |
| 2026-04-29 14:31 | -41.14832 | -71.16120 | 2784 ft | 14 kts | 116° |
| 2026-04-29 14:31 | -41.14875 | -71.15997 | 2784 ft | 14 kts | 111° |
| 2026-04-29 14:31 | -41.14917 | -71.15871 | 2784 ft | 16 kts | 115° |
| 2026-04-29 14:32 | -41.14967 | -71.15727 | 2784 ft | 16 kts | 113° |
| 2026-04-29 14:32 | -41.15013 | -71.15595 | 2784 ft | 14 kts | 114° |
| 2026-04-29 14:32 | -41.15054 | -71.15477 | 2784 ft | 13 kts | 115° |
| 2026-04-29 14:32 | -41.15096 | -71.15357 | 2784 ft | 15 kts | 114° |
| 2026-04-29 14:33 | -41.15144 | -71.15214 | 2784 ft | 18 kts | 114° |
| 2026-04-29 14:33 | -41.15200 | -71.15052 | 2784 ft | 18 kts | 114° |
| 2026-04-29 14:33 | -41.15253 | -71.14901 | 2784 ft | 18 kts | 114° |
| 2026-04-29 14:33 | -41.15306 | -71.14747 | 2784 ft | 20 kts | 114° |
| 2026-04-29 14:34 | -41.15370 | -71.14565 | 2784 ft | 21 kts | 114° |
| 2026-04-29 14:34 | -41.15434 | -71.14436 | 2784 ft | 13 kts | 168° |
| 2026-04-29 14:34 | -41.15513 | -71.14472 | 2784 ft | 9 kts | 201° |
| 2026-04-29 14:34 | -41.15546 | -71.14517 | 2784 ft | 6 kts | 295° |
| 2026-04-29 14:35 | -41.15515 | -71.14600 | 2784 ft | 29 kts | 294° |
| 2026-04-29 14:35 | -41.15312 | -71.15191 | 2784 ft | 108 kts | 294° |
| 2026-04-29 14:35 | -41.14928 | -71.16325 | 3044 ft | 151 kts | 291° |
| 2026-04-29 14:35 | -41.14499 | -71.17657 | 3852 ft | 162 kts | 292° |
| 2026-04-29 14:36 | -41.14016 | -71.19009 | 4662 ft | 172 kts | 292° |
| 2026-04-29 14:36 | -41.13490 | -71.20544 | 5151 ft | 199 kts | 291° |
| 2026-04-29 14:36 | -41.12892 | -71.22301 | 5758 ft | 223 kts | 291° |
| 2026-04-29 14:36 | -41.12237 | -71.24225 | 6665 ft | 235 kts | 291° |
| 2026-04-29 14:37 | -41.11564 | -71.26207 | 7657 ft | 243 kts | 291° |
| 2026-04-29 14:37 | -41.10875 | -71.28239 | 8640 ft | 249 kts | 291° |
| 2026-04-29 14:37 | -41.10160 | -71.30347 | 9615 ft | 256 kts | 291° |
| 2026-04-29 14:37 | -41.09432 | -71.32495 | 10564 ft | 262 kts | 291° |
| 2026-04-29 14:38 | -41.08676 | -71.34724 | 11511 ft | 268 kts | 292° |
| 2026-04-29 14:38 | -41.08014 | -71.37023 | 12429 ft | 272 kts | 279° |
| 2026-04-29 14:38 | -41.08107 | -71.39460 | 13346 ft | 270 kts | 248° |
| 2026-04-29 14:38 | -41.09186 | -71.41430 | 14257 ft | 271 kts | 216° |
| 2026-04-29 14:39 | -41.10948 | -71.42277 | 15117 ft | 277 kts | 183° |
| 2026-04-29 14:39 | -41.12822 | -71.41782 | 15961 ft | 284 kts | 162° |
| 2026-04-29 14:39 | -41.14713 | -71.40998 | 16820 ft | 286 kts | 172° |
| 2026-04-29 14:39 | -41.16664 | -71.40661 | 17719 ft | 284 kts | 174° |
| 2026-04-29 14:40 | -41.18569 | -71.40069 | 18500 ft | 289 kts | 165° |
| 2026-04-29 14:40 | -41.20459 | -71.39204 | 19307 ft | 289 kts | 164° |
| 2026-04-29 14:40 | -41.22361 | -71.38367 | 20140 ft | 287 kts | 165° |
| 2026-04-29 14:40 | -41.24233 | -71.37555 | 20841 ft | 288 kts | 165° |
| 2026-04-29 14:41 | -41.26201 | -71.36691 | 21086 ft | 308 kts | 165° |
| 2026-04-29 14:41 | -41.28318 | -71.35759 | 21138 ft | 332 kts | 164° |
| 2026-04-29 14:41 | -41.30575 | -71.34762 | 21192 ft | 355 kts | 164° |
| 2026-04-29 14:41 | -41.32985 | -71.33695 | 21346 ft | 377 kts | 164° |
| 2026-04-29 14:42 | -41.35502 | -71.32575 | 21975 ft | 385 kts | 164° |
| 2026-04-29 14:42 | -41.38038 | -71.31447 | 22675 ft | 391 kts | 164° |
| 2026-04-29 14:42 | -41.40645 | -71.30286 | 23415 ft | 395 kts | 164° |
| 2026-04-29 14:42 | -41.43222 | -71.29139 | 24114 ft | 399 kts | 164° |
| 2026-04-29 14:43 | -41.45880 | -71.27954 | 24796 ft | 401 kts | 164° |
| 2026-04-29 14:43 | -41.48526 | -71.26774 | 25022 ft | 403 kts | 164° |
| 2026-04-29 14:43 | -41.51134 | -71.25608 | 24992 ft | 394 kts | 164° |
| 2026-04-29 14:43 | -41.53675 | -71.24468 | 24993 ft | 378 kts | 165° |
| 2026-04-29 14:44 | -41.56098 | -71.23382 | 24993 ft | 361 kts | 165° |
| 2026-04-29 14:44 | -41.58468 | -71.22322 | 24995 ft | 358 kts | 165° |
| 2026-04-29 14:44 | -41.60841 | -71.21266 | 24993 ft | 366 kts | 165° |
| 2026-04-29 14:44 | -41.63255 | -71.20185 | 24993 ft | 368 kts | 165° |
| 2026-04-29 14:45 | -41.65677 | -71.19097 | 24993 ft | 368 kts | 165° |
| 2026-04-29 14:45 | -41.68090 | -71.18014 | 24993 ft | 367 kts | 165° |
| 2026-04-29 14:45 | -41.70531 | -71.16924 | 24993 ft | 366 kts | 166° |
| 2026-04-29 14:45 | -41.72969 | -71.16058 | 24993 ft | 364 kts | 172° |
| 2026-04-29 14:46 | -41.75446 | -71.15501 | 24993 ft | 363 kts | 174° |
| 2026-04-29 14:46 | -41.77959 | -71.14964 | 24993 ft | 363 kts | 173° |
| 2026-04-29 14:46 | -41.80448 | -71.14398 | 24993 ft | 363 kts | 173° |
| 2026-04-29 14:46 | -41.82932 | -71.13839 | 24993 ft | 363 kts | 173° |
| 2026-04-29 14:47 | -41.85420 | -71.13291 | 24993 ft | 363 kts | 174° |
| 2026-04-29 14:47 | -41.87894 | -71.12748 | 24993 ft | 363 kts | 174° |
| 2026-04-29 14:47 | -41.90390 | -71.12200 | 24993 ft | 363 kts | 174° |
| 2026-04-29 14:47 | -41.92038 | -71.11839 | 24993 ft | 363 kts | 174° |
| 2026-04-29 14:48 | -41.95383 | -71.11108 | 24966 ft | 364 kts | 174° |
| 2026-04-29 14:48 | -41.97857 | -71.10567 | 24941 ft | 364 kts | 174° |
| 2026-04-29 14:48 | -42.00374 | -71.10017 | 24916 ft | 363 kts | 174° |
| 2026-04-29 14:48 | -42.02847 | -71.09476 | 24891 ft | 363 kts | 174° |
| 2026-04-29 14:49 | -42.05342 | -71.08930 | 24865 ft | 364 kts | 174° |
| 2026-04-29 14:49 | -42.07846 | -71.08382 | 24840 ft | 364 kts | 174° |
| 2026-04-29 14:49 | -42.10336 | -71.07837 | 24830 ft | 363 kts | 174° |
| 2026-04-29 14:49 | -42.12730 | -71.07310 | 24829 ft | 354 kts | 174° |
| 2026-04-29 14:50 | -42.15104 | -71.06786 | 24830 ft | 338 kts | 174° |
| 2026-04-29 14:50 | -42.17369 | -71.06287 | 24830 ft | 322 kts | 174° |
| 2026-04-29 14:50 | -42.19505 | -71.05817 | 24830 ft | 307 kts | 174° |
| 2026-04-29 14:50 | -42.21576 | -71.05363 | 24831 ft | 295 kts | 174° |
| 2026-04-29 14:51 | -42.23611 | -71.04920 | 24829 ft | 304 kts | 174° |
| 2026-04-29 14:51 | -42.25742 | -71.04456 | 24971 ft | 312 kts | 174° |
| 2026-04-29 14:51 | -42.27889 | -71.03984 | 25067 ft | 322 kts | 174° |
| 2026-04-29 14:51 | -42.30165 | -71.03487 | 24783 ft | 345 kts | 174° |
| 2026-04-29 14:52 | -42.32576 | -71.02956 | 24468 ft | 351 kts | 174° |
| 2026-04-29 14:52 | -42.34996 | -71.02419 | 23770 ft | 356 kts | 174° |
| 2026-04-29 14:52 | -42.37409 | -71.01883 | 22945 ft | 350 kts | 173° |
| 2026-04-29 14:52 | -42.39788 | -71.01356 | 21876 ft | 353 kts | 173° |
| 2026-04-29 14:53 | -42.42197 | -71.00825 | 20775 ft | 354 kts | 173° |
| 2026-04-29 14:53 | -42.44619 | -71.00288 | 19673 ft | 355 kts | 173° |
| 2026-04-29 14:53 | -42.47034 | -70.99751 | 18574 ft | 356 kts | 173° |
| 2026-04-29 14:53 | -42.49444 | -70.99216 | 17478 ft | 355 kts | 173° |
| 2026-04-29 14:54 | -42.51856 | -70.98682 | 16380 ft | 355 kts | 173° |
| 2026-04-29 14:54 | -42.54286 | -70.98144 | 15270 ft | 353 kts | 172° |
| 2026-04-29 14:54 | -42.56671 | -70.97613 | 14175 ft | 352 kts | 172° |
| 2026-04-29 14:54 | -42.59050 | -70.97085 | 13157 ft | 347 kts | 172° |
| 2026-04-29 14:55 | -42.61378 | -70.96566 | 12406 ft | 336 kts | 172° |
| 2026-04-29 14:55 | -42.63655 | -70.96059 | 11648 ft | 327 kts | 172° |
| 2026-04-29 14:55 | -42.65797 | -70.95246 | 10896 ft | 321 kts | 158° |
| 2026-04-29 14:55 | -42.67768 | -70.93945 | 10151 ft | 314 kts | 156° |
| 2026-04-29 14:56 | -42.69707 | -70.92669 | 9489 ft | 305 kts | 157° |
| 2026-04-29 14:56 | -42.71542 | -70.91499 | 9383 ft | 278 kts | 157° |
| 2026-04-29 14:56 | -42.73223 | -70.90404 | 9163 ft | 261 kts | 157° |
| 2026-04-29 14:56 | -42.74854 | -70.89332 | 8471 ft | 265 kts | 157° |
| 2026-04-29 14:57 | -42.76591 | -70.88614 | 7717 ft | 263 kts | 181° |
| 2026-04-29 14:57 | -42.78330 | -70.89054 | 6972 ft | 257 kts | 210° |
| 2026-04-29 14:57 | -42.79619 | -70.90684 | 6196 ft | 255 kts | 240° |
| 2026-04-29 14:57 | -42.80427 | -70.92802 | 5511 ft | 254 kts | 241° |
| 2026-04-29 14:58 | -42.81302 | -70.94679 | 4841 ft | 239 kts | 236° |
| 2026-04-29 14:58 | -42.82219 | -70.96436 | 4266 ft | 218 kts | 236° |
| 2026-04-29 14:58 | -42.83027 | -70.98086 | 3617 ft | 205 kts | 238° |
| 2026-04-29 14:58 | -42.83743 | -70.99600 | 3589 ft | 184 kts | 237° |
| 2026-04-29 14:59 | -42.84414 | -71.01066 | 3678 ft | 184 kts | 239° |
| 2026-04-29 14:59 | -42.85017 | -71.02486 | 3634 ft | 161 kts | 241° |
| 2026-04-29 14:59 | -42.85588 | -71.03713 | 3579 ft | 141 kts | 236° |
| 2026-04-29 14:59 | -42.86121 | -71.04681 | 3609 ft | 117 kts | 235° |
| 2026-04-29 15:00 | -42.86587 | -71.05576 | 3601 ft | 123 kts | 238° |
| 2026-04-29 15:00 | -42.87077 | -71.06603 | 3558 ft | 129 kts | 242° |
| 2026-04-29 15:00 | -42.87548 | -71.07642 | 3409 ft | 126 kts | 241° |
| 2026-04-29 15:00 | -42.88045 | -71.08626 | 3201 ft | 125 kts | 243° |
| 2026-04-29 15:01 | -42.88466 | -71.09579 | 3086 ft | 112 kts | 241° |
| 2026-04-29 15:01 | -42.88902 | -71.10490 | 2892 ft | 113 kts | 239° |
| 2026-04-29 15:01 | -42.89326 | -71.11360 | 2723 ft | 121 kts | 234° |
| 2026-04-29 15:01 | -42.89738 | -71.12234 | 2662 ft | 104 kts | 238° |
| 2026-04-29 15:02 | -42.90139 | -71.13055 | 2589 ft | 88 kts | 238° |
| 2026-04-29 15:02 | -42.90340 | -71.13472 | 2600 ft | 34 kts | 238° |
| 2026-04-29 15:02 | -42.90403 | -71.13601 | 2603 ft | 20 kts | 237° |